createdAt,value
2018-01-22T00:00:07.791Z,812.21
2018-01-22T00:01:07.796Z,812.20
2018-01-22T00:02:07.802Z,812.13
2018-01-22T00:03:07.810Z,812.03
2018-01-22T00:04:07.815Z,812.01
2018-01-22T00:05:07.820Z,812.03
2018-01-22T00:06:07.826Z,812.06
2018-01-22T00:07:07.832Z,812.05
2018-01-22T00:08:07.839Z,812.04
2018-01-22T00:09:07.844Z,812.01
2018-01-22T00:10:07.851Z,812.03
2018-01-22T00:11:07.855Z,812.08
2018-01-22T00:12:07.865Z,812.07
2018-01-22T00:13:07.867Z,812.04
2018-01-22T00:14:07.873Z,812.04
2018-01-22T00:15:07.879Z,812.09
2018-01-22T00:16:07.885Z,812.06
2018-01-22T00:17:07.890Z,812.06
2018-01-22T00:18:07.896Z,812.02
2018-01-22T00:19:07.902Z,812.06
2018-01-22T00:20:07.909Z,812.07
2018-01-22T00:21:07.913Z,812.10
2018-01-22T00:22:07.921Z,812.07
2018-01-22T00:23:07.926Z,812.09
2018-01-22T00:24:07.930Z,812.08
2018-01-22T00:25:07.936Z,812.07
2018-01-22T00:26:07.945Z,812.14
2018-01-22T00:27:07.954Z,812.13
2018-01-22T00:28:07.957Z,812.09
2018-01-22T00:29:07.961Z,812.11
2018-01-22T00:30:07.967Z,812.08
2018-01-22T00:31:07.973Z,812.13
2018-01-22T00:32:07.977Z,812.15
2018-01-22T00:33:07.983Z,812.15
2018-01-22T00:34:07.991Z,812.15
2018-01-22T00:35:07.996Z,812.16
2018-01-22T00:36:08.002Z,812.15
2018-01-22T00:37:08.010Z,812.13
2018-01-22T00:38:08.014Z,812.19
2018-01-22T00:39:08.022Z,812.13
2018-01-22T00:40:08.025Z,812.21
2018-01-22T00:41:08.031Z,812.21
2018-01-22T00:42:08.036Z,812.21
2018-01-22T00:43:08.043Z,812.20
2018-01-22T00:44:08.050Z,812.23
2018-01-22T00:45:08.055Z,812.25
2018-01-22T00:46:08.060Z,812.28
2018-01-22T00:47:08.067Z,812.24
2018-01-22T00:48:08.073Z,812.27
2018-01-22T00:49:08.080Z,812.25
2018-01-22T00:50:08.083Z,812.26
2018-01-22T00:51:08.090Z,812.23
2018-01-22T00:52:08.097Z,812.30
2018-01-22T00:53:08.107Z,812.23
2018-01-22T00:54:08.108Z,812.20
2018-01-22T00:55:08.114Z,812.26
2018-01-22T00:56:08.122Z,812.21
2018-01-22T00:57:08.124Z,812.26
2018-01-22T00:58:08.130Z,812.26
2018-01-22T00:59:08.137Z,812.28
2018-01-22T01:00:08.143Z,812.28
2018-01-22T01:01:08.150Z,812.22
2018-01-22T01:02:08.154Z,812.27
2018-01-22T01:03:08.160Z,812.29
2018-01-22T01:04:08.165Z,812.27
2018-01-22T01:05:08.175Z,812.23
2018-01-22T01:06:08.176Z,812.25
2018-01-22T01:07:08.184Z,812.17
2018-01-22T01:08:08.188Z,812.21
2018-01-22T01:09:08.195Z,812.22
2018-01-22T01:10:08.201Z,812.17
2018-01-22T01:11:08.205Z,812.15
2018-01-22T01:12:08.213Z,812.10
2018-01-22T01:13:08.217Z,812.05
2018-01-22T01:14:08.225Z,812.11
2018-01-22T01:15:08.229Z,812.09
2018-01-22T01:16:08.237Z,812.10
2018-01-22T01:17:08.240Z,812.10
2018-01-22T01:18:08.249Z,812.13
2018-01-22T01:19:08.252Z,812.14
2018-01-22T01:20:08.259Z,812.10
2018-01-22T01:21:08.266Z,812.14
2018-01-22T01:22:08.272Z,812.08
2018-01-22T01:23:08.276Z,812.13
2018-01-22T01:24:08.281Z,812.13
2018-01-22T01:25:08.288Z,812.16
2018-01-22T01:26:08.292Z,812.13
2018-01-22T01:27:08.299Z,812.10
2018-01-22T01:28:08.306Z,812.11
2018-01-22T01:29:08.310Z,812.05
2018-01-22T01:30:08.318Z,812.04
2018-01-22T01:31:08.322Z,812.04
2018-01-22T01:32:08.331Z,812.05
2018-01-22T01:33:08.335Z,812.03
2018-01-22T01:34:08.342Z,812.03
2018-01-22T01:35:08.347Z,812.04
2018-01-22T01:36:08.357Z,812.04
2018-01-22T01:37:08.359Z,812.02
2018-01-22T01:38:08.365Z,812.04
2018-01-22T01:39:08.372Z,812.01
2018-01-22T01:40:08.377Z,811.93
2018-01-22T01:41:08.382Z,811.92
2018-01-22T01:42:08.388Z,811.90
2018-01-22T01:43:08.395Z,811.89
2018-01-22T01:44:08.402Z,811.88
2018-01-22T01:45:08.408Z,811.85
2018-01-22T01:46:08.413Z,811.91
2018-01-22T01:47:08.422Z,811.91
2018-01-22T01:48:08.424Z,811.97
2018-01-22T01:49:08.430Z,811.92
2018-01-22T01:50:08.436Z,811.89
2018-01-22T01:51:08.442Z,811.94
2018-01-22T01:52:08.448Z,811.88
2018-01-22T01:53:08.453Z,811.86
2018-01-22T01:54:08.458Z,811.81
2018-01-22T01:55:08.465Z,811.85
2018-01-22T01:56:08.472Z,811.89
2018-01-22T01:57:08.478Z,811.92
2018-01-22T01:58:08.486Z,811.88
2018-01-22T01:59:08.490Z,811.86
2018-01-22T02:00:08.506Z,811.89
2018-01-22T02:01:08.501Z,811.93
2018-01-22T02:02:08.506Z,811.98
2018-01-22T02:03:08.513Z,812.01
2018-01-22T02:04:08.519Z,811.93
2018-01-22T02:05:08.525Z,811.96
2018-01-22T02:06:08.532Z,811.95
2018-01-22T02:07:08.539Z,811.94
2018-01-22T02:08:08.543Z,811.92
2018-01-22T02:09:08.552Z,811.92
2018-01-22T02:10:08.556Z,811.92
2018-01-22T02:11:08.562Z,811.86
2018-01-22T02:12:08.567Z,811.92
2018-01-22T02:13:08.573Z,811.92
2018-01-22T02:14:08.579Z,811.76
2018-01-22T02:15:08.585Z,811.85
2018-01-22T02:16:08.591Z,811.84
2018-01-22T02:17:08.598Z,811.84
2018-01-22T02:18:08.602Z,811.80
2018-01-22T02:19:08.609Z,811.78
2018-01-22T02:20:08.616Z,811.80
2018-01-22T02:21:08.622Z,811.76
2018-01-22T02:22:08.627Z,811.66
2018-01-22T02:23:08.633Z,811.70
2018-01-22T02:24:08.641Z,811.72
2018-01-22T02:25:08.649Z,811.75
2018-01-22T02:26:08.655Z,811.67
2018-01-22T02:27:08.657Z,811.68
2018-01-22T02:28:08.664Z,811.70
2018-01-22T02:29:08.670Z,811.66
2018-01-22T02:30:08.677Z,811.68
2018-01-22T02:31:08.682Z,811.65
2018-01-22T02:32:08.689Z,811.63
2018-01-22T02:33:08.697Z,811.65
2018-01-22T02:34:08.706Z,811.67
2018-01-22T02:35:08.707Z,811.63
2018-01-22T02:36:08.714Z,811.66
2018-01-22T02:37:08.718Z,811.66
2018-01-22T02:38:08.725Z,811.74
2018-01-22T02:39:08.731Z,811.75
2018-01-22T02:40:08.739Z,811.65
2018-01-22T02:41:08.742Z,811.64
2018-01-22T02:42:08.751Z,811.70
2018-01-22T02:43:08.757Z,811.57
2018-01-22T02:44:08.766Z,811.54
2018-01-22T02:45:08.767Z,811.53
2018-01-22T02:46:08.775Z,811.55
2018-01-22T02:47:08.781Z,811.52
2018-01-22T02:48:08.787Z,811.57
2018-01-22T02:49:08.792Z,811.57
2018-01-22T02:50:08.801Z,811.63
2018-01-22T02:51:08.805Z,811.61
2018-01-22T02:52:08.822Z,811.64
2018-01-22T02:53:08.817Z,811.52
2018-01-22T02:54:08.823Z,811.58
2018-01-22T02:55:08.830Z,811.64
2018-01-22T02:56:08.841Z,811.68
2018-01-22T02:57:08.841Z,811.64
2018-01-22T02:58:08.848Z,811.65
2018-01-22T02:59:08.854Z,811.70
2018-01-22T03:00:08.860Z,811.66
2018-01-22T03:01:08.866Z,811.70
2018-01-22T03:02:08.873Z,811.63
2018-01-22T03:03:08.879Z,811.67
2018-01-22T03:04:08.885Z,811.63
2018-01-22T03:05:08.890Z,811.64
2018-01-22T03:06:08.896Z,811.71
2018-01-22T03:07:08.902Z,811.65
2018-01-22T03:08:08.911Z,811.66
2018-01-22T03:09:08.913Z,811.69
2018-01-22T03:10:08.920Z,811.68
2018-01-22T03:11:08.925Z,811.68
2018-01-22T03:12:08.932Z,811.68
2018-01-22T03:13:08.936Z,811.63
2018-01-22T03:14:08.942Z,811.65
2018-01-22T03:15:08.948Z,811.75
2018-01-22T03:16:08.954Z,811.75
2018-01-22T03:17:08.961Z,811.69
2018-01-22T03:18:08.968Z,811.65
2018-01-22T03:19:08.973Z,811.46
2018-01-22T03:20:08.978Z,811.55
2018-01-22T03:21:08.984Z,811.57
2018-01-22T03:22:08.994Z,811.61
2018-01-22T03:23:08.998Z,811.67
2018-01-22T03:24:09.003Z,811.67
2018-01-22T03:25:09.008Z,811.67
2018-01-22T03:26:09.013Z,811.69
2018-01-22T03:27:09.019Z,811.72
2018-01-22T03:28:09.027Z,811.78
2018-01-22T03:29:09.034Z,811.78
2018-01-22T03:30:09.040Z,811.68
2018-01-22T03:31:09.045Z,811.63
2018-01-22T03:32:09.050Z,811.67
2018-01-22T03:33:09.056Z,811.66
2018-01-22T03:34:09.063Z,811.72
2018-01-22T03:35:09.068Z,811.73
2018-01-22T03:36:09.074Z,811.72
2018-01-22T03:37:09.079Z,811.72
2018-01-22T03:38:09.087Z,811.70
2018-01-22T03:39:09.091Z,811.66
2018-01-22T03:40:09.100Z,811.64
2018-01-22T03:41:09.102Z,811.66
2018-01-22T03:42:09.110Z,811.71
2018-01-22T03:43:09.120Z,811.74
2018-01-22T03:44:09.123Z,811.68
2018-01-22T03:45:09.128Z,811.71
2018-01-22T03:46:09.134Z,811.72
2018-01-22T03:47:09.142Z,811.76
2018-01-22T03:48:09.147Z,811.74
2018-01-22T03:49:09.154Z,811.71
2018-01-22T03:50:09.160Z,811.69
2018-01-22T03:51:09.170Z,811.66
2018-01-22T03:52:09.175Z,811.63
2018-01-22T03:53:09.178Z,811.63
2018-01-22T03:54:09.185Z,811.66
2018-01-22T03:55:09.192Z,811.71
2018-01-22T03:56:09.203Z,811.73
2018-01-22T03:57:09.204Z,811.77
2018-01-22T03:58:09.211Z,811.77
2018-01-22T03:59:09.218Z,811.79
2018-01-22T04:00:09.224Z,811.83
2018-01-22T04:01:09.230Z,811.73
2018-01-22T04:02:09.237Z,811.76
2018-01-22T04:03:09.246Z,811.85
2018-01-22T04:04:09.249Z,811.89
2018-01-22T04:05:09.255Z,811.94
2018-01-22T04:06:09.261Z,811.94
2018-01-22T04:07:09.269Z,811.91
2018-01-22T04:08:09.275Z,811.95
2018-01-22T04:09:09.282Z,811.96
2018-01-22T04:10:09.288Z,812.05
2018-01-22T04:11:09.294Z,812.08
2018-01-22T04:12:09.301Z,812.05
2018-01-22T04:13:09.306Z,812.06
2018-01-22T04:14:09.317Z,812.02
2018-01-22T04:15:09.320Z,812.12
2018-01-22T04:16:09.326Z,812.12
2018-01-22T04:17:09.331Z,812.10
2018-01-22T04:18:09.338Z,812.10
2018-01-22T04:19:09.344Z,812.12
2018-01-22T04:20:09.351Z,812.12
2018-01-22T04:21:09.357Z,812.24
2018-01-22T04:22:09.365Z,812.21
2018-01-22T04:23:09.371Z,812.24
2018-01-22T04:24:09.377Z,812.23
2018-01-22T04:25:09.382Z,812.26
2018-01-22T04:26:09.389Z,812.28
2018-01-22T04:27:09.394Z,812.26
2018-01-22T04:28:09.401Z,812.24
2018-01-22T04:29:09.407Z,812.30
2018-01-22T04:30:09.413Z,812.33
2018-01-22T04:31:09.420Z,812.33
2018-01-22T04:32:09.428Z,812.36
2018-01-22T04:33:09.433Z,812.37
2018-01-22T04:34:09.439Z,812.39
2018-01-22T04:35:09.446Z,812.35
2018-01-22T04:36:09.453Z,812.39
2018-01-22T04:37:09.460Z,812.26
2018-01-22T04:38:09.464Z,812.22
2018-01-22T04:39:09.471Z,812.25
2018-01-22T04:40:09.477Z,812.25
2018-01-22T04:41:09.483Z,812.22
2018-01-22T04:42:09.490Z,812.22
2018-01-22T04:43:09.547Z,812.20
2018-01-22T04:44:09.502Z,812.23
2018-01-22T04:45:09.508Z,812.20
2018-01-22T04:46:09.514Z,812.25
2018-01-22T04:47:09.521Z,812.13
2018-01-22T04:48:09.527Z,812.15
2018-01-22T04:49:09.532Z,812.15
2018-01-22T04:50:09.539Z,812.13
2018-01-22T04:51:09.545Z,812.16
2018-01-22T04:52:09.552Z,812.23
2018-01-22T04:53:09.558Z,812.25
2018-01-22T04:54:09.564Z,812.22
2018-01-22T04:55:09.575Z,812.26
2018-01-22T04:56:09.582Z,812.16
2018-01-22T04:57:09.582Z,812.14
2018-01-22T04:58:09.587Z,812.24
2018-01-22T04:59:09.595Z,812.29
2018-01-22T05:00:09.602Z,812.31
2018-01-22T05:01:09.607Z,812.40
2018-01-22T05:02:09.613Z,812.40
2018-01-22T05:03:09.645Z,812.40
2018-01-22T05:04:09.634Z,812.43
2018-01-22T05:05:09.631Z,812.45
2018-01-22T05:06:09.637Z,812.45
2018-01-22T05:07:09.643Z,812.45
2018-01-22T05:08:09.653Z,812.45
2018-01-22T05:09:09.655Z,812.46
2018-01-22T05:10:09.662Z,812.51
2018-01-22T05:11:09.669Z,812.51
2018-01-22T05:12:09.676Z,812.48
2018-01-22T05:13:09.679Z,812.45
2018-01-22T05:14:09.689Z,812.42
2018-01-22T05:15:09.692Z,812.50
2018-01-22T05:16:09.700Z,812.52
2018-01-22T05:17:09.705Z,812.44
2018-01-22T05:18:09.711Z,812.43
2018-01-22T05:19:09.718Z,812.41
2018-01-22T05:20:09.724Z,812.43
2018-01-22T05:21:09.730Z,812.43
2018-01-22T05:22:09.738Z,812.53
2018-01-22T05:23:09.742Z,812.52
2018-01-22T05:24:09.748Z,812.42
2018-01-22T05:25:09.755Z,812.34
2018-01-22T05:26:09.760Z,812.37
2018-01-22T05:27:09.768Z,812.33
2018-01-22T05:28:09.774Z,812.32
2018-01-22T05:29:09.780Z,812.27
2018-01-22T05:30:09.785Z,812.27
2018-01-22T05:31:09.792Z,812.26
2018-01-22T05:32:09.798Z,812.27
2018-01-22T05:33:09.803Z,812.23
2018-01-22T05:34:09.810Z,812.23
2018-01-22T05:35:09.816Z,812.23
2018-01-22T05:36:09.822Z,812.23
2018-01-22T05:37:09.827Z,812.24
2018-01-22T05:38:09.836Z,812.30
2018-01-22T05:39:09.841Z,812.28
2018-01-22T05:40:09.848Z,812.24
2018-01-22T05:41:09.852Z,812.22
2018-01-22T05:42:09.858Z,812.16
2018-01-22T05:43:09.866Z,812.13
2018-01-22T05:44:09.872Z,812.09
2018-01-22T05:45:09.876Z,812.13
2018-01-22T05:46:09.884Z,812.16
2018-01-22T05:47:09.891Z,812.22
2018-01-22T05:48:09.898Z,812.23
2018-01-22T05:49:09.902Z,812.19
2018-01-22T05:50:09.909Z,812.21
2018-01-22T05:51:09.915Z,812.24
2018-01-22T05:52:09.922Z,812.27
2018-01-22T05:53:09.929Z,812.40
2018-01-22T05:54:09.932Z,812.42
2018-01-22T05:55:09.939Z,812.38
2018-01-22T05:56:09.947Z,812.21
2018-01-22T05:57:09.952Z,812.17
2018-01-22T05:58:09.963Z,812.24
2018-01-22T05:59:09.964Z,812.22
2018-01-22T06:00:09.973Z,812.31
2018-01-22T06:01:09.976Z,812.37
2018-01-22T06:02:09.983Z,812.30
2018-01-22T06:03:09.988Z,812.31
2018-01-22T06:04:09.994Z,812.31
2018-01-22T06:05:09.999Z,812.28
2018-01-22T06:06:10.007Z,812.22
2018-01-22T06:07:10.012Z,812.23
2018-01-22T06:08:10.019Z,812.27
2018-01-22T06:09:10.026Z,812.26
2018-01-22T06:10:10.032Z,812.30
2018-01-22T06:11:10.038Z,812.32
2018-01-22T06:12:10.042Z,812.35
2018-01-22T06:13:10.048Z,812.31
2018-01-22T06:14:10.053Z,812.28
2018-01-22T06:15:10.060Z,812.36
2018-01-22T06:16:10.067Z,812.38
2018-01-22T06:17:10.072Z,812.44
2018-01-22T06:18:10.077Z,812.48
2018-01-22T06:19:10.083Z,812.46
2018-01-22T06:20:10.092Z,812.39
2018-01-22T06:21:10.095Z,812.36
2018-01-22T06:22:10.101Z,812.43
2018-01-22T06:23:10.107Z,812.42
2018-01-22T06:24:10.115Z,812.40
2018-01-22T06:25:10.119Z,812.48
2018-01-22T06:26:10.126Z,812.54
2018-01-22T06:27:10.131Z,812.51
2018-01-22T06:28:10.137Z,812.52
2018-01-22T06:29:10.143Z,812.55
2018-01-22T06:30:10.149Z,812.62
2018-01-22T06:31:10.156Z,812.65
2018-01-22T06:32:10.161Z,812.68
2018-01-22T06:33:10.167Z,812.66
2018-01-22T06:34:10.173Z,812.68
2018-01-22T06:35:10.180Z,812.68
2018-01-22T06:36:10.186Z,812.65
2018-01-22T06:37:10.252Z,812.69
2018-01-22T06:38:10.200Z,812.68
2018-01-22T06:39:10.203Z,812.71
2018-01-22T06:40:10.209Z,812.73
2018-01-22T06:41:10.214Z,812.75
2018-01-22T06:42:10.224Z,812.78
2018-01-22T06:43:10.227Z,812.72
2018-01-22T06:44:10.238Z,812.68
2018-01-22T06:45:10.239Z,812.70
2018-01-22T06:46:10.246Z,812.74
2018-01-22T06:47:10.250Z,812.72
2018-01-22T06:48:10.257Z,812.73
2018-01-22T06:49:10.266Z,812.76
2018-01-22T06:50:10.269Z,812.74
2018-01-22T06:51:10.279Z,812.68
2018-01-22T06:52:10.282Z,812.63
2018-01-22T06:53:10.288Z,812.59
2018-01-22T06:54:10.294Z,812.67
2018-01-22T06:55:10.303Z,812.66
2018-01-22T06:56:10.308Z,812.65
2018-01-22T06:57:10.334Z,812.68
2018-01-22T06:58:10.318Z,812.73
2018-01-22T06:59:10.324Z,812.68
2018-01-22T07:00:10.331Z,812.59
2018-01-22T07:01:10.336Z,812.64
2018-01-22T07:02:10.342Z,812.54
2018-01-22T07:03:10.348Z,812.54
2018-01-22T07:04:10.355Z,812.52
2018-01-22T07:05:10.363Z,812.59
2018-01-22T07:06:10.367Z,812.46
2018-01-22T07:07:10.374Z,812.49
2018-01-22T07:08:10.382Z,812.50
2018-01-22T07:09:10.385Z,812.50
2018-01-22T07:10:10.392Z,812.51
2018-01-22T07:11:10.398Z,812.48
2018-01-22T07:12:10.405Z,812.49
2018-01-22T07:13:10.476Z,812.54
2018-01-22T07:14:10.415Z,812.61
2018-01-22T07:15:10.423Z,812.57
2018-01-22T07:16:10.428Z,812.68
2018-01-22T07:17:10.434Z,812.75
2018-01-22T07:18:10.439Z,812.67
2018-01-22T07:19:10.448Z,812.72
2018-01-22T07:20:10.453Z,812.77
2018-01-22T07:21:10.458Z,812.82
2018-01-22T07:22:10.463Z,812.85
2018-01-22T07:23:10.471Z,812.88
2018-01-22T07:24:10.476Z,812.87
2018-01-22T07:25:10.486Z,812.84
2018-01-22T07:26:10.492Z,812.81
2018-01-22T07:27:10.494Z,812.78
2018-01-22T07:28:10.500Z,812.76
2018-01-22T07:29:10.506Z,812.74
2018-01-22T07:30:10.511Z,812.70
2018-01-22T07:31:10.518Z,812.78
2018-01-22T07:32:10.532Z,812.84
2018-01-22T07:33:10.528Z,812.82
2018-01-22T07:34:10.535Z,812.78
2018-01-22T07:35:10.541Z,812.81
2018-01-22T07:36:10.547Z,812.78
2018-01-22T07:37:10.553Z,812.78
2018-01-22T07:38:10.559Z,812.79
2018-01-22T07:39:10.565Z,812.83
2018-01-22T07:40:10.571Z,812.77
2018-01-22T07:41:10.576Z,812.76
2018-01-22T07:42:10.583Z,812.76
2018-01-22T07:43:10.640Z,812.80
2018-01-22T07:44:10.594Z,812.84
2018-01-22T07:45:10.600Z,812.87
2018-01-22T07:46:10.606Z,812.86
2018-01-22T07:47:10.612Z,812.82
2018-01-22T07:48:10.617Z,812.79
2018-01-22T07:49:10.622Z,812.72
2018-01-22T07:50:10.630Z,812.75
2018-01-22T07:51:10.636Z,812.77
2018-01-22T07:52:10.641Z,812.80
2018-01-22T07:53:10.652Z,812.79
2018-01-22T07:54:10.653Z,812.78
2018-01-22T07:55:10.660Z,812.76
2018-01-22T07:56:10.665Z,812.74
2018-01-22T07:57:10.670Z,812.81
2018-01-22T07:58:10.675Z,812.82
2018-01-22T07:59:10.682Z,812.71
2018-01-22T08:00:10.724Z,812.70
2018-01-22T08:01:10.694Z,812.65
2018-01-22T08:02:10.702Z,812.59
2018-01-22T08:03:10.706Z,812.61
2018-01-22T08:04:10.713Z,812.64
2018-01-22T08:05:10.718Z,812.53
2018-01-22T08:06:10.724Z,812.47
2018-01-22T08:07:10.730Z,812.43
2018-01-22T08:08:10.735Z,812.41
2018-01-22T08:09:10.741Z,812.33
2018-01-22T08:10:10.749Z,812.32
2018-01-22T08:11:10.754Z,812.34
2018-01-22T08:12:10.761Z,812.30
2018-01-22T08:13:10.768Z,812.29
2018-01-22T08:14:10.826Z,812.33
2018-01-22T08:15:10.779Z,812.35
2018-01-22T08:16:10.783Z,812.33
2018-01-22T08:17:10.794Z,812.32
2018-01-22T08:18:10.795Z,812.35
2018-01-22T08:19:10.801Z,812.36
2018-01-22T08:20:10.835Z,812.31
2018-01-22T08:21:10.814Z,812.26
2018-01-22T08:22:10.819Z,812.21
2018-01-22T08:23:10.826Z,812.18
2018-01-22T08:24:10.835Z,812.22
2018-01-22T08:25:10.838Z,812.19
2018-01-22T08:26:10.843Z,812.18
2018-01-22T08:27:10.850Z,812.19
2018-01-22T08:28:10.855Z,812.23
2018-01-22T08:29:10.861Z,812.19
2018-01-22T08:30:10.873Z,812.14
2018-01-22T08:31:10.872Z,812.08
2018-01-22T08:32:10.879Z,812.14
2018-01-22T08:33:10.882Z,812.10
2018-01-22T08:34:10.892Z,812.10
2018-01-22T08:35:10.897Z,812.12
2018-01-22T08:36:10.903Z,812.12
2018-01-22T08:37:10.905Z,812.18
2018-01-22T08:38:10.913Z,812.19
2018-01-22T08:39:10.919Z,812.23
2018-01-22T08:40:10.928Z,812.30
2018-01-22T08:41:10.931Z,812.42
2018-01-22T08:42:10.936Z,812.56
2018-01-22T08:43:10.942Z,812.61
2018-01-22T08:44:10.950Z,812.72
2018-01-22T08:45:10.954Z,812.78
2018-01-22T08:46:10.963Z,812.80
2018-01-22T08:47:10.966Z,812.77
2018-01-22T08:48:10.972Z,812.86
2018-01-22T08:49:10.977Z,812.88
2018-01-22T08:50:10.984Z,812.98
2018-01-22T08:51:10.990Z,812.97
2018-01-22T08:52:10.994Z,812.98
2018-01-22T08:53:11.019Z,812.98
2018-01-22T08:54:11.007Z,812.92
2018-01-22T08:55:11.014Z,812.91
2018-01-22T08:56:11.018Z,812.93
2018-01-22T08:57:11.028Z,812.94
2018-01-22T08:58:11.029Z,812.87
2018-01-22T08:59:11.039Z,812.74
2018-01-22T09:00:11.042Z,812.68
2018-01-22T09:01:11.047Z,812.70
2018-01-22T09:02:11.056Z,812.75
2018-01-22T09:03:11.060Z,812.74
2018-01-22T09:04:11.065Z,812.70
2018-01-22T09:05:11.073Z,812.65
2018-01-22T09:06:11.078Z,812.75
2018-01-22T09:07:11.084Z,812.82
2018-01-22T09:08:11.090Z,812.90
2018-01-22T09:09:11.094Z,813.01
2018-01-22T09:10:11.100Z,813.03
2018-01-22T09:11:11.107Z,812.99
2018-01-22T09:12:11.113Z,812.88
2018-01-22T09:13:11.119Z,812.79
2018-01-22T09:14:11.124Z,812.72
2018-01-22T09:15:11.133Z,812.56
2018-01-22T09:16:11.137Z,812.50
2018-01-22T09:17:11.141Z,812.40
2018-01-22T09:18:11.148Z,812.37
2018-01-22T09:19:11.152Z,812.34
2018-01-22T09:20:11.160Z,812.30
2018-01-22T09:21:11.165Z,812.34
2018-01-22T09:22:11.171Z,812.31
2018-01-22T09:23:11.183Z,812.36
2018-01-22T09:24:11.185Z,812.34
2018-01-22T09:25:11.196Z,812.39
2018-01-22T09:26:11.195Z,812.51
2018-01-22T09:27:11.202Z,812.51
2018-01-22T09:28:11.207Z,812.54
2018-01-22T09:29:11.212Z,812.53
2018-01-22T09:30:11.217Z,812.51
2018-01-22T09:31:11.224Z,812.54
2018-01-22T09:32:11.232Z,812.60
2018-01-22T09:33:11.237Z,812.64
2018-01-22T09:34:11.251Z,812.70
2018-01-22T09:35:11.250Z,812.66
2018-01-22T09:36:11.257Z,812.65
2018-01-22T09:37:11.262Z,812.58
2018-01-22T09:38:11.265Z,812.55
2018-01-22T09:39:11.271Z,812.53
2018-01-22T09:40:11.281Z,812.52
2018-01-22T09:41:11.282Z,812.55
2018-01-22T09:42:11.291Z,812.48
2018-01-22T09:43:11.296Z,812.46
2018-01-22T09:44:11.302Z,812.42
2018-01-22T09:45:11.307Z,812.36
2018-01-22T09:46:11.312Z,812.42
2018-01-22T09:47:11.322Z,812.46
2018-01-22T09:48:11.325Z,812.52
2018-01-22T09:49:11.330Z,812.47
2018-01-22T09:50:11.342Z,812.39
2018-01-22T09:51:11.342Z,812.29
2018-01-22T09:52:11.384Z,812.22
2018-01-22T09:53:11.357Z,812.23
2018-01-22T09:54:11.409Z,812.19
2018-01-22T09:55:11.369Z,812.26
2018-01-22T09:56:11.371Z,812.35
2018-01-22T09:57:11.378Z,812.42
2018-01-22T09:58:11.388Z,812.50
2018-01-22T09:59:11.390Z,812.50
2018-01-22T10:00:11.399Z,812.44
2018-01-22T10:01:11.401Z,812.40
2018-01-22T10:02:11.409Z,812.38
2018-01-22T10:03:11.415Z,812.30
2018-01-22T10:04:11.422Z,812.28
2018-01-22T10:05:11.427Z,812.18
2018-01-22T10:06:11.432Z,812.12
2018-01-22T10:07:11.438Z,812.05
2018-01-22T10:08:11.446Z,812.07
2018-01-22T10:09:11.450Z,812.07
2018-01-22T10:10:11.457Z,812.11
2018-01-22T10:11:11.464Z,812.18
2018-01-22T10:12:11.470Z,812.25
2018-01-22T10:13:11.475Z,812.26
2018-01-22T10:14:11.480Z,812.26
2018-01-22T10:15:11.498Z,812.21
2018-01-22T10:16:11.492Z,812.00
2018-01-22T10:17:11.499Z,811.94
2018-01-22T10:18:11.504Z,811.90
2018-01-22T10:19:11.509Z,811.87
2018-01-22T10:20:11.516Z,811.87
2018-01-22T10:21:11.523Z,811.84
2018-01-22T10:22:11.531Z,811.75
2018-01-22T10:23:11.536Z,811.67
2018-01-22T10:24:11.542Z,811.60
2018-01-22T10:25:11.549Z,811.62
2018-01-22T10:26:11.557Z,811.63
2018-01-22T10:27:11.556Z,811.81
2018-01-22T10:28:11.564Z,811.87
2018-01-22T10:29:11.611Z,811.85
2018-01-22T10:30:11.577Z,811.91
2018-01-22T10:31:11.584Z,812.00
2018-01-22T10:32:11.588Z,812.04
2018-01-22T10:33:11.593Z,811.96
2018-01-22T10:34:11.601Z,811.91
2018-01-22T10:35:11.606Z,811.92
2018-01-22T10:36:11.619Z,812.04
2018-01-22T10:37:11.618Z,812.13
2018-01-22T10:38:11.625Z,812.22
2018-01-22T10:39:11.629Z,812.21
2018-01-22T10:40:11.635Z,812.11
2018-01-22T10:41:11.644Z,812.15
2018-01-22T10:42:11.649Z,812.26
2018-01-22T10:43:11.652Z,812.25
2018-01-22T10:44:11.658Z,812.22
2018-01-22T10:45:11.664Z,812.09
2018-01-22T10:46:11.673Z,811.96
2018-01-22T10:47:11.676Z,811.95
2018-01-22T10:48:11.682Z,811.99
2018-01-22T10:49:11.689Z,812.04
2018-01-22T10:50:11.694Z,812.09
2018-01-22T10:51:11.699Z,812.10
2018-01-22T10:52:11.707Z,812.03
2018-01-22T10:53:11.713Z,812.18
2018-01-22T10:54:11.718Z,812.23
2018-01-22T10:55:11.725Z,812.13
2018-01-22T10:56:11.730Z,812.00
2018-01-22T10:57:11.735Z,811.96
2018-01-22T10:58:11.744Z,811.89
2018-01-22T10:59:11.749Z,811.93
2018-01-22T11:00:11.759Z,811.91
2018-01-22T11:01:11.763Z,812.00
2018-01-22T11:02:11.769Z,812.08
2018-01-22T11:03:11.774Z,812.03
2018-01-22T11:04:11.779Z,812.04
2018-01-22T11:05:11.786Z,812.05
2018-01-22T11:06:11.792Z,811.97
2018-01-22T11:07:11.799Z,812.06
2018-01-22T11:08:11.807Z,812.12
2018-01-22T11:09:11.811Z,811.93
2018-01-22T11:10:11.818Z,811.88
2018-01-22T11:11:11.825Z,811.90
2018-01-22T11:12:11.832Z,811.84
2018-01-22T11:13:11.837Z,811.84
2018-01-22T11:14:11.845Z,811.88
2018-01-22T11:15:11.878Z,811.82
2018-01-22T11:16:11.866Z,811.69
2018-01-22T11:17:11.880Z,811.65
2018-01-22T11:18:11.881Z,811.63
2018-01-22T11:19:11.920Z,811.62
2018-01-22T11:20:12.153Z,811.58
2018-01-22T11:21:11.907Z,811.55
2018-01-22T11:22:11.909Z,811.64
2018-01-22T11:23:11.947Z,811.74
2018-01-22T11:24:12.253Z,811.76
2018-01-22T11:25:11.957Z,811.69
2018-01-22T11:26:12.202Z,811.57
2018-01-22T11:27:15.568Z,811.68
2018-01-22T11:28:14.066Z,811.84
2018-01-22T11:29:13.373Z,811.87
2018-01-22T11:30:11.951Z,811.79
2018-01-22T11:31:11.958Z,811.79
2018-01-22T11:32:11.968Z,811.65
2018-01-22T11:33:11.973Z,811.85
2018-01-22T11:34:11.980Z,812.00
2018-01-22T11:35:11.989Z,811.97
2018-01-22T11:36:11.995Z,811.82
2018-01-22T11:37:12.004Z,811.76
2018-01-22T11:38:12.009Z,811.82
2018-01-22T11:39:12.013Z,811.88
2018-01-22T11:40:12.020Z,811.93
2018-01-22T11:41:12.027Z,811.81
2018-01-22T11:42:12.033Z,811.75
2018-01-22T11:43:12.041Z,811.71
2018-01-22T11:44:12.045Z,811.75
2018-01-22T11:45:12.052Z,811.84
2018-01-22T11:46:12.059Z,811.84
2018-01-22T11:47:12.066Z,811.83
2018-01-22T11:48:12.071Z,811.80
2018-01-22T11:49:12.078Z,811.78
2018-01-22T11:50:12.085Z,811.84
2018-01-22T11:51:12.092Z,811.82
2018-01-22T11:52:12.098Z,811.67
2018-01-22T11:53:12.105Z,811.67
2018-01-22T11:54:12.111Z,811.61
2018-01-22T11:55:12.121Z,811.62
2018-01-22T11:56:12.124Z,811.66
2018-01-22T11:57:12.130Z,811.67
2018-01-22T11:58:12.140Z,811.56
2018-01-22T11:59:12.148Z,811.43
2018-01-22T12:00:12.153Z,811.52
2018-01-22T12:01:12.159Z,811.55
2018-01-22T12:02:12.167Z,811.49
2018-01-22T12:03:12.172Z,811.61
2018-01-22T12:04:12.180Z,811.61
2018-01-22T12:05:12.185Z,811.60
2018-01-22T12:06:12.192Z,811.61
2018-01-22T12:07:12.197Z,811.47
2018-01-22T12:08:12.206Z,811.41
2018-01-22T12:09:12.211Z,811.40
2018-01-22T12:10:12.220Z,811.48
2018-01-22T12:11:12.228Z,811.57
2018-01-22T12:12:12.233Z,811.62
2018-01-22T12:13:12.239Z,811.54
2018-01-22T12:14:12.247Z,811.34
2018-01-22T12:15:12.254Z,811.29
2018-01-22T12:16:12.263Z,811.41
2018-01-22T12:17:12.266Z,811.53
2018-01-22T12:18:12.274Z,811.50
2018-01-22T12:19:12.280Z,811.44
2018-01-22T12:20:12.287Z,811.40
2018-01-22T12:21:12.296Z,811.43
2018-01-22T12:22:12.300Z,811.52
2018-01-22T12:23:12.311Z,811.51
2018-01-22T12:24:12.316Z,811.38
2018-01-22T12:25:12.321Z,811.32
2018-01-22T12:26:12.330Z,811.27
2018-01-22T12:27:12.363Z,811.27
2018-01-22T12:28:12.343Z,811.29